Terminal Aerodrome Forecast
Issued by NWS Grand Forks, ND

Home | Current Version | Previous Version | Text Only | Print | Product List | Glossary Off
Versions: 1 2 3 4 5 6 7 8 9 10 11 12 13 14 15 16

742
FTUS43 KFGF 022320
TAFGFK
TAF
KGFK 022320Z 0300/0324 VRB06KT P6SM SCT250
     FM031200 27009KT P6SM SCT200
     FM031400 32014KT P6SM FEW250
     FM031700 35019G27KT P6SM FEW250=

USA.gov is the U.S. government's official web portal to all federal, state and local government web resources and services.